createdAt,value
2017-09-06T00:01:20.602Z,17.20
2017-09-06T00:03:48.399Z,17.20
2017-09-06T00:06:15.885Z,17.20
2017-09-06T00:08:43.475Z,17.20
2017-09-06T00:11:10.969Z,17.10
2017-09-06T00:13:38.443Z,17.10
2017-09-06T00:16:05.930Z,17.10
2017-09-06T00:18:33.502Z,17.10
2017-09-06T00:21:01.064Z,17.10
2017-09-06T00:23:28.583Z,17.10
2017-09-06T00:25:56.920Z,17.10
2017-09-06T00:28:24.450Z,17.10
2017-09-06T00:30:51.982Z,17.10
2017-09-06T00:33:19.566Z,17.10
2017-09-06T00:35:47.230Z,17.10
2017-09-06T00:38:14.685Z,17.10
2017-09-06T00:40:42.153Z,17.10
2017-09-06T00:43:09.700Z,17.10
2017-09-06T00:45:37.244Z,17.00
2017-09-06T00:48:04.716Z,17.00
2017-09-06T00:50:32.194Z,17.00
2017-09-06T00:52:59.657Z,17.00
2017-09-06T00:55:27.141Z,17.00
2017-09-06T00:57:54.618Z,17.00
2017-09-06T01:00:22.092Z,17.00
2017-09-06T01:02:49.552Z,17.00
2017-09-06T01:05:17.030Z,16.90
2017-09-06T01:07:44.674Z,16.90
2017-09-06T01:10:12.178Z,16.90
2017-09-06T01:12:39.646Z,16.90
2017-09-06T01:15:07.125Z,16.90
2017-09-06T01:17:34.594Z,16.80
2017-09-06T01:20:02.111Z,16.80
2017-09-06T01:22:29.620Z,16.80
2017-09-06T01:24:57.109Z,16.70
2017-09-06T01:27:24.599Z,16.80
2017-09-06T01:29:52.134Z,16.80
2017-09-06T01:32:19.585Z,16.70
2017-09-06T01:34:47.089Z,16.60
2017-09-06T01:37:14.576Z,16.60
2017-09-06T01:39:42.055Z,16.60
2017-09-06T01:42:09.547Z,16.60
2017-09-06T01:44:37.036Z,16.60
2017-09-06T01:47:04.521Z,16.70
2017-09-06T01:49:36.894Z,16.60
2017-09-06T01:52:04.383Z,16.60
2017-09-06T01:54:31.861Z,16.60
2017-09-06T01:56:59.351Z,16.60
2017-09-06T01:59:26.833Z,16.60
2017-09-06T02:01:54.306Z,16.60
2017-09-06T02:04:21.800Z,16.60
2017-09-06T02:06:49.281Z,16.70
2017-09-06T02:09:16.754Z,16.70
2017-09-06T02:11:44.248Z,16.70
2017-09-06T02:14:11.735Z,16.60
2017-09-06T02:16:39.235Z,16.50
2017-09-06T02:19:06.727Z,16.50
2017-09-06T02:21:34.216Z,16.40
2017-09-06T02:24:01.707Z,16.40
2017-09-06T02:26:29.195Z,16.40
2017-09-06T02:28:56.669Z,16.50
2017-09-06T02:31:24.250Z,16.50
2017-09-06T02:33:51.735Z,16.60
2017-09-06T02:36:19.236Z,16.60
2017-09-06T02:38:46.767Z,16.60
2017-09-06T02:41:14.249Z,16.50
2017-09-06T02:43:41.749Z,16.50
2017-09-06T02:46:09.274Z,16.40
2017-09-06T02:48:36.753Z,16.40
2017-09-06T02:51:04.234Z,16.50
2017-09-06T02:53:31.709Z,16.50
2017-09-06T02:55:59.182Z,16.50
2017-09-06T02:58:26.756Z,16.40
2017-09-06T03:00:54.245Z,16.40
2017-09-06T03:03:21.718Z,16.50
2017-09-06T03:05:49.235Z,16.50
2017-09-06T03:08:16.690Z,16.60
2017-09-06T03:10:44.246Z,16.60
2017-09-06T03:13:11.732Z,16.60
2017-09-06T03:15:39.228Z,16.60
2017-09-06T03:18:06.715Z,16.70
2017-09-06T03:20:34.215Z,16.80
2017-09-06T03:23:01.703Z,16.80
2017-09-06T03:25:29.183Z,16.80
2017-09-06T03:27:56.695Z,16.80
2017-09-06T03:30:24.188Z,16.80
2017-09-06T03:32:51.669Z,16.70
2017-09-06T03:35:19.933Z,16.80
2017-09-06T03:37:47.435Z,16.80
2017-09-06T03:40:14.932Z,16.80
2017-09-06T03:42:42.420Z,16.90
2017-09-06T03:45:09.920Z,16.90
2017-09-06T03:47:37.410Z,17.00
2017-09-06T03:50:04.875Z,16.90
2017-09-06T03:52:32.358Z,17.00
2017-09-06T03:54:59.834Z,16.90
2017-09-06T03:57:27.348Z,17.00
2017-09-06T03:59:54.848Z,17.00
2017-09-06T04:02:22.324Z,17.00
2017-09-06T04:04:49.826Z,16.90
2017-09-06T04:07:17.307Z,16.90
2017-09-06T04:09:44.804Z,16.90
2017-09-06T04:12:12.298Z,16.90
2017-09-06T04:14:39.795Z,16.90
2017-09-06T04:17:07.296Z,17.00
2017-09-06T04:19:34.784Z,17.00
2017-09-06T04:22:02.254Z,17.00
2017-09-06T04:24:29.742Z,17.00
2017-09-06T04:26:57.261Z,17.10
2017-09-06T04:29:24.731Z,17.10
2017-09-06T04:31:52.227Z,17.10
2017-09-06T04:34:19.730Z,17.10
2017-09-06T04:36:47.206Z,17.00
2017-09-06T04:39:14.691Z,17.10
2017-09-06T04:41:42.183Z,17.10
2017-09-06T04:44:09.673Z,17.10
2017-09-06T04:46:37.161Z,17.10
2017-09-06T04:49:04.652Z,17.20
2017-09-06T04:51:32.125Z,17.20
2017-09-06T04:53:59.614Z,17.20
2017-09-06T04:56:27.115Z,17.20
2017-09-06T04:58:54.606Z,17.20
2017-09-06T05:01:22.089Z,17.30
2017-09-06T05:03:49.559Z,17.30
2017-09-06T05:06:17.050Z,17.40
2017-09-06T05:08:44.541Z,17.40
2017-09-06T05:11:12.021Z,17.50
2017-09-06T05:13:39.498Z,17.50
2017-09-06T05:16:07.009Z,17.50
2017-09-06T05:18:34.481Z,17.50
2017-09-06T05:21:01.974Z,17.50
2017-09-06T05:23:29.601Z,17.60
2017-09-06T05:25:57.100Z,17.50
2017-09-06T05:28:24.591Z,17.50
2017-09-06T05:30:52.080Z,17.50
2017-09-06T05:33:19.593Z,17.50
2017-09-06T05:35:47.084Z,17.50
2017-09-06T05:38:14.581Z,17.50
2017-09-06T05:40:42.067Z,17.60
2017-09-06T05:43:09.575Z,17.60
2017-09-06T05:45:37.086Z,17.60
2017-09-06T05:48:04.680Z,17.60
2017-09-06T05:50:32.150Z,17.60
2017-09-06T05:52:59.683Z,17.70
2017-09-06T05:55:27.146Z,17.70
2017-09-06T05:57:54.622Z,17.70
2017-09-06T06:00:22.080Z,17.80
2017-09-06T06:02:49.580Z,17.80
2017-09-06T06:05:17.069Z,17.80
2017-09-06T06:07:44.568Z,17.80
2017-09-06T06:10:12.064Z,17.80
2017-09-06T06:12:39.563Z,17.80
2017-09-06T06:15:07.032Z,17.90
2017-09-06T06:17:34.511Z,17.90
2017-09-06T06:20:02.037Z,18.00
2017-09-06T06:22:29.525Z,18.00
2017-09-06T06:24:57.050Z,18.00
2017-09-06T06:27:24.705Z,18.00
2017-09-06T06:29:52.243Z,18.00
2017-09-06T06:32:19.728Z,18.00
2017-09-06T06:34:47.224Z,18.00
2017-09-06T06:37:14.728Z,18.10
2017-09-06T06:39:42.221Z,18.10
2017-09-06T06:42:09.698Z,18.10
2017-09-06T06:44:37.259Z,18.10
2017-09-06T06:47:04.735Z,18.10
2017-09-06T06:49:32.216Z,18.20
2017-09-06T06:51:59.696Z,18.20
2017-09-06T06:54:27.168Z,18.20
2017-09-06T06:56:54.637Z,18.20
2017-09-06T06:59:22.118Z,18.20
2017-09-06T07:01:49.618Z,18.10
2017-09-06T07:04:17.181Z,18.00
2017-09-06T07:06:44.707Z,18.10
2017-09-06T07:09:12.241Z,18.10
2017-09-06T07:11:39.757Z,18.20
2017-09-06T07:14:07.239Z,18.20
2017-09-06T07:16:34.714Z,18.30
2017-09-06T07:19:02.329Z,18.40
2017-09-06T07:21:29.815Z,18.40
2017-09-06T07:23:57.375Z,18.50
2017-09-06T07:26:24.829Z,18.50
2017-09-06T07:28:52.304Z,18.50
2017-09-06T07:31:19.782Z,18.60
2017-09-06T07:33:47.280Z,18.60
2017-09-06T07:36:14.751Z,18.70
2017-09-06T07:38:42.237Z,18.80
2017-09-06T07:41:09.718Z,18.90
2017-09-06T07:43:37.202Z,19.00
2017-09-06T07:46:04.672Z,19.00
2017-09-06T07:48:32.172Z,19.00
2017-09-06T07:50:59.632Z,19.00
2017-09-06T07:53:27.104Z,18.80
2017-09-06T07:55:54.608Z,18.70
2017-09-06T07:58:22.125Z,18.60
2017-09-06T08:00:49.650Z,18.50
2017-09-06T08:03:17.112Z,18.50
2017-09-06T08:05:44.655Z,18.50
2017-09-06T08:08:12.131Z,18.30
2017-09-06T08:10:39.713Z,18.20
2017-09-06T08:13:07.221Z,18.20
2017-09-06T08:15:34.699Z,18.10
2017-09-06T08:18:02.243Z,18.20
2017-09-06T08:20:29.798Z,18.20
2017-09-06T08:22:57.265Z,18.20
2017-09-06T08:25:24.728Z,18.20
2017-09-06T08:27:52.273Z,18.30
2017-09-06T08:30:19.830Z,18.40
2017-09-06T08:32:47.388Z,18.50
2017-09-06T08:35:14.954Z,18.50
2017-09-06T08:37:42.497Z,18.50
2017-09-06T08:40:09.980Z,18.50
2017-09-06T08:42:37.505Z,18.60
2017-09-06T08:45:04.974Z,18.60
2017-09-06T08:47:32.539Z,18.60
2017-09-06T08:50:00.018Z,18.60
2017-09-06T08:52:27.474Z,18.60
2017-09-06T08:54:55.006Z,18.70
2017-09-06T08:57:22.478Z,18.70
2017-09-06T08:59:50.016Z,18.80
2017-09-06T09:02:17.577Z,18.80
2017-09-06T09:04:45.049Z,18.90
2017-09-06T09:07:12.587Z,18.90
2017-09-06T09:09:40.057Z,18.80
2017-09-06T09:12:07.541Z,18.70
2017-09-06T09:14:35.044Z,18.60
2017-09-06T09:17:02.525Z,18.60
2017-09-06T09:19:30.021Z,18.60
2017-09-06T09:21:57.494Z,18.60
2017-09-06T09:24:24.986Z,18.80
2017-09-06T09:26:52.457Z,18.90
2017-09-06T09:29:19.926Z,19.00
2017-09-06T09:31:47.425Z,19.10
2017-09-06T09:34:14.890Z,19.20
2017-09-06T09:36:42.371Z,19.30
2017-09-06T09:39:09.841Z,19.30
2017-09-06T09:41:37.382Z,19.40
2017-09-06T09:44:04.942Z,19.40
2017-09-06T09:46:32.523Z,19.40
2017-09-06T09:49:00.057Z,19.60
2017-09-06T09:51:27.523Z,19.70
2017-09-06T09:53:55.017Z,19.80
2017-09-06T09:56:22.486Z,20.00
2017-09-06T09:58:49.955Z,20.00
2017-09-06T10:01:17.434Z,20.00
2017-09-06T10:03:45.007Z,20.00
2017-09-06T10:06:12.565Z,19.90
2017-09-06T10:08:40.135Z,19.90
2017-09-06T10:11:07.604Z,19.90
2017-09-06T10:13:35.126Z,19.90
2017-09-06T10:16:02.597Z,20.00
2017-09-06T10:18:30.147Z,20.10
2017-09-06T10:20:57.626Z,20.20
2017-09-06T10:23:25.173Z,20.30
2017-09-06T10:25:52.651Z,20.40
2017-09-06T10:28:20.211Z,20.40
2017-09-06T10:30:47.737Z,20.60
2017-09-06T10:33:15.207Z,20.70
2017-09-06T10:35:42.677Z,20.70
2017-09-06T10:38:10.236Z,20.60
2017-09-06T10:40:37.707Z,20.50
2017-09-06T10:43:05.280Z,20.40
2017-09-06T10:45:32.791Z,20.40
2017-09-06T10:48:00.341Z,20.40
2017-09-06T10:50:27.859Z,20.30
2017-09-06T10:52:55.421Z,20.40
2017-09-06T10:55:22.920Z,20.30
2017-09-06T10:57:50.399Z,20.10
2017-09-06T11:00:17.863Z,20.00
2017-09-06T11:02:45.344Z,20.00
2017-09-06T11:05:12.847Z,19.90
2017-09-06T11:07:40.319Z,20.00
2017-09-06T11:10:07.784Z,20.10
2017-09-06T11:12:35.487Z,20.20
2017-09-06T11:15:02.969Z,20.20
2017-09-06T11:17:30.430Z,20.20
2017-09-06T11:19:57.890Z,20.30
2017-09-06T11:22:25.360Z,20.30
2017-09-06T11:24:52.856Z,20.40
2017-09-06T11:27:20.357Z,20.40
2017-09-06T11:29:47.815Z,20.40
2017-09-06T11:32:15.275Z,20.30
2017-09-06T11:34:42.774Z,20.30
2017-09-06T11:37:10.290Z,20.40
2017-09-06T11:39:37.847Z,20.40
2017-09-06T11:42:05.304Z,20.50
2017-09-06T11:44:32.773Z,20.60
2017-09-06T11:47:00.293Z,20.70
2017-09-06T11:49:27.757Z,20.70
2017-09-06T11:51:55.227Z,20.70
2017-09-06T11:54:22.781Z,20.60
2017-09-06T11:56:50.255Z,20.70
2017-09-06T11:59:17.803Z,21.00
2017-09-06T12:01:45.281Z,21.20
2017-09-06T12:04:12.775Z,21.30
2017-09-06T12:06:40.245Z,21.20
2017-09-06T12:09:07.739Z,21.20
2017-09-06T12:11:35.214Z,21.30
2017-09-06T12:14:02.737Z,21.30
2017-09-06T12:16:30.218Z,21.50
2017-09-06T12:18:57.682Z,21.40
2017-09-06T12:21:25.241Z,21.50
2017-09-06T12:23:52.786Z,21.60
2017-09-06T12:26:20.241Z,21.60
2017-09-06T12:28:47.713Z,21.70
2017-09-06T12:31:15.210Z,21.80
2017-09-06T12:33:42.682Z,22.00
2017-09-06T12:36:10.144Z,22.10
2017-09-06T12:38:37.609Z,22.20
2017-09-06T12:41:05.176Z,22.10
2017-09-06T12:43:32.686Z,22.20
2017-09-06T12:46:00.150Z,22.60
2017-09-06T12:48:27.614Z,22.90
2017-09-06T12:50:55.114Z,23.20
2017-09-06T12:53:22.669Z,23.50
2017-09-06T12:55:50.245Z,23.60
2017-09-06T12:58:17.724Z,23.80
2017-09-06T13:00:45.178Z,23.70
2017-09-06T13:03:12.645Z,24.10
2017-09-06T13:05:40.148Z,24.20
2017-09-06T13:08:07.720Z,23.90
2017-09-06T13:10:35.177Z,23.80
2017-09-06T13:13:02.661Z,23.70
2017-09-06T13:15:30.196Z,23.70
2017-09-06T13:17:57.663Z,23.50
2017-09-06T13:20:25.203Z,23.70
2017-09-06T13:22:52.678Z,23.60
2017-09-06T13:25:20.218Z,23.50
2017-09-06T13:27:47.702Z,23.20
2017-09-06T13:30:15.225Z,23.10
2017-09-06T13:32:42.797Z,22.90
2017-09-06T13:35:10.257Z,22.80
2017-09-06T13:37:37.854Z,22.80
2017-09-06T13:40:05.425Z,22.80
2017-09-06T13:42:32.916Z,22.80
2017-09-06T13:45:00.494Z,22.70
2017-09-06T13:47:27.990Z,22.50
2017-09-06T13:49:55.459Z,22.30
2017-09-06T13:52:23.003Z,22.10
2017-09-06T13:54:50.501Z,22.00
2017-09-06T13:57:18.067Z,21.20
2017-09-06T13:59:45.538Z,20.20
2017-09-06T14:02:13.042Z,19.80
2017-09-06T14:04:40.549Z,19.50
2017-09-06T14:07:08.100Z,19.20
2017-09-06T14:09:35.650Z,19.10
2017-09-06T14:12:03.120Z,19.00
2017-09-06T14:14:30.792Z,18.90
2017-09-06T14:16:58.317Z,18.90
2017-09-06T14:19:25.785Z,19.10
2017-09-06T14:21:53.356Z,19.30
2017-09-06T14:24:20.905Z,19.40
2017-09-06T14:26:48.457Z,19.60
2017-09-06T14:29:16.017Z,19.70
2017-09-06T14:31:43.586Z,19.70
2017-09-06T14:34:11.064Z,19.70
2017-09-06T14:36:38.531Z,19.70
2017-09-06T14:39:06.070Z,19.70
2017-09-06T14:41:33.544Z,19.80
2017-09-06T14:44:01.001Z,19.80
2017-09-06T14:46:28.471Z,19.80
2017-09-06T14:48:56.043Z,19.90
2017-09-06T14:51:23.551Z,20.00
2017-09-06T14:53:51.047Z,20.00
2017-09-06T14:56:18.536Z,19.90
2017-09-06T14:58:46.010Z,19.70
2017-09-06T15:01:13.474Z,19.40
2017-09-06T15:03:41.039Z,19.20
2017-09-06T15:06:08.597Z,19.10
2017-09-06T15:08:36.148Z,19.00
2017-09-06T15:11:03.706Z,19.00
2017-09-06T15:13:31.211Z,19.00
2017-09-06T15:15:58.713Z,18.90
2017-09-06T15:18:26.279Z,18.80
2017-09-06T15:20:53.770Z,18.80
2017-09-06T15:23:21.344Z,18.80
2017-09-06T15:25:48.904Z,18.80
2017-09-06T15:28:16.374Z,18.80
2017-09-06T15:30:43.837Z,18.80
2017-09-06T15:33:11.330Z,18.90
2017-09-06T15:35:38.831Z,18.70
2017-09-06T15:38:06.300Z,18.70
2017-09-06T15:40:33.795Z,18.70
2017-09-06T15:43:01.252Z,18.60
2017-09-06T15:45:28.717Z,18.50
2017-09-06T15:47:56.182Z,18.50
2017-09-06T15:50:23.638Z,18.60
2017-09-06T15:52:51.201Z,18.60
2017-09-06T15:55:18.665Z,18.60
2017-09-06T15:57:46.184Z,18.60
2017-09-06T16:00:13.672Z,18.60
2017-09-06T16:02:41.210Z,18.60
2017-09-06T16:05:08.684Z,18.50
2017-09-06T16:07:36.191Z,18.50
2017-09-06T16:10:03.675Z,18.50
2017-09-06T16:12:31.147Z,18.50
2017-09-06T16:14:58.624Z,18.40
2017-09-06T16:17:26.859Z,18.40
2017-09-06T16:19:54.324Z,18.40
2017-09-06T16:22:21.787Z,18.50
2017-09-06T16:24:49.241Z,18.40
2017-09-06T16:27:16.712Z,18.40
2017-09-06T16:29:44.306Z,18.40
2017-09-06T16:32:11.822Z,18.40
2017-09-06T16:34:39.288Z,18.40
2017-09-06T16:37:06.777Z,18.50
2017-09-06T16:39:34.255Z,18.50
2017-09-06T16:42:01.715Z,18.60
2017-09-06T16:44:29.207Z,18.60
2017-09-06T16:46:56.674Z,18.60
2017-09-06T16:49:24.129Z,18.40
2017-09-06T16:51:52.386Z,18.30
2017-09-06T16:54:19.846Z,18.20
2017-09-06T16:56:47.407Z,18.20
2017-09-06T16:59:14.962Z,18.20
2017-09-06T17:01:42.432Z,18.00
2017-09-06T17:04:10.044Z,17.90
2017-09-06T17:06:37.533Z,17.90
2017-09-06T17:09:05.005Z,17.70
2017-09-06T17:11:32.499Z,17.80
2017-09-06T17:13:59.998Z,17.70
2017-09-06T17:16:27.554Z,17.70
2017-09-06T17:18:55.038Z,17.70
2017-09-06T17:21:22.579Z,17.60
2017-09-06T17:23:50.130Z,17.60
2017-09-06T17:26:17.710Z,17.50
2017-09-06T17:28:45.254Z,17.50
2017-09-06T17:31:12.814Z,17.40
2017-09-06T17:33:40.385Z,17.30
2017-09-06T17:36:07.897Z,17.20
2017-09-06T17:38:35.400Z,17.20
2017-09-06T17:41:02.885Z,17.10
2017-09-06T17:43:30.662Z,17.00
2017-09-06T17:45:58.133Z,17.00
2017-09-06T17:48:25.606Z,16.90
2017-09-06T17:50:53.174Z,16.90
2017-09-06T17:53:20.648Z,16.80
2017-09-06T17:55:48.107Z,16.90
2017-09-06T17:58:15.666Z,16.90
2017-09-06T18:00:43.130Z,16.90
2017-09-06T18:03:10.614Z,16.80
2017-09-06T18:05:38.360Z,16.80
2017-09-06T18:08:05.985Z,16.80
2017-09-06T18:10:33.562Z,16.80
2017-09-06T18:13:01.076Z,16.80
2017-09-06T18:15:28.521Z,16.70
2017-09-06T18:17:56.035Z,16.60
2017-09-06T18:20:23.524Z,16.70
2017-09-06T18:22:50.994Z,16.60
2017-09-06T18:25:18.476Z,16.50
2017-09-06T18:27:46.037Z,16.40
2017-09-06T18:30:13.597Z,16.30
2017-09-06T18:32:41.073Z,16.30
2017-09-06T18:35:08.628Z,16.30
2017-09-06T18:37:36.234Z,16.20
2017-09-06T18:40:03.792Z,16.20
2017-09-06T18:42:31.350Z,16.20
2017-09-06T18:44:58.854Z,16.20
2017-09-06T18:47:26.363Z,16.20
2017-09-06T18:49:53.885Z,16.20
2017-09-06T18:52:21.367Z,16.20
2017-09-06T18:54:48.901Z,16.20
2017-09-06T18:57:16.518Z,16.20
2017-09-06T18:59:43.982Z,16.30
2017-09-06T19:02:11.478Z,16.40
2017-09-06T19:04:39.034Z,16.40
2017-09-06T19:07:06.509Z,16.40
2017-09-06T19:09:34.003Z,16.30
2017-09-06T19:12:01.470Z,16.20
2017-09-06T19:14:28.953Z,16.10
2017-09-06T19:16:56.433Z,16.10
2017-09-06T19:19:23.901Z,16.00
2017-09-06T19:21:51.375Z,16.00
2017-09-06T19:24:18.856Z,15.90
2017-09-06T19:26:46.322Z,15.90
2017-09-06T19:29:13.898Z,15.90
2017-09-06T19:31:41.385Z,16.00
2017-09-06T19:34:08.855Z,15.90
2017-09-06T19:36:36.325Z,15.90
2017-09-06T19:39:03.803Z,15.90
2017-09-06T19:41:31.265Z,15.90
2017-09-06T19:43:58.849Z,15.90
2017-09-06T19:46:26.313Z,15.90
2017-09-06T19:48:53.793Z,15.80
2017-09-06T19:51:21.270Z,15.80
2017-09-06T19:53:48.727Z,15.70
2017-09-06T19:56:16.213Z,15.80
2017-09-06T19:58:43.790Z,15.80
2017-09-06T20:01:11.273Z,15.70
2017-09-06T20:03:38.734Z,15.70
2017-09-06T20:06:06.251Z,15.70
2017-09-06T20:08:33.701Z,15.60
2017-09-06T20:11:01.212Z,15.60
2017-09-06T20:13:28.717Z,15.50
2017-09-06T20:15:56.211Z,15.50
2017-09-06T20:18:23.673Z,15.60
2017-09-06T20:20:51.160Z,15.60
2017-09-06T20:23:18.654Z,15.50
2017-09-06T20:25:46.213Z,15.60
2017-09-06T20:28:13.678Z,15.50
2017-09-06T20:30:41.143Z,15.60
2017-09-06T20:33:08.772Z,15.60
2017-09-06T20:35:36.255Z,15.60
2017-09-06T20:38:03.705Z,15.60
2017-09-06T20:40:31.269Z,15.60
2017-09-06T20:42:58.826Z,15.50
2017-09-06T20:45:26.310Z,15.60
2017-09-06T20:47:53.834Z,15.50
2017-09-06T20:50:21.307Z,15.50
2017-09-06T20:52:48.781Z,15.50
2017-09-06T20:55:16.298Z,15.50
2017-09-06T20:57:43.790Z,15.50
2017-09-06T21:00:11.270Z,15.60
2017-09-06T21:02:38.771Z,15.70
2017-09-06T21:05:06.236Z,15.60
2017-09-06T21:07:33.789Z,15.60
2017-09-06T21:10:01.338Z,15.60
2017-09-06T21:12:28.927Z,15.70
2017-09-06T21:14:56.468Z,15.70
2017-09-06T21:17:24.006Z,15.70
2017-09-06T21:19:51.571Z,15.70
2017-09-06T21:22:19.144Z,15.70
2017-09-06T21:24:46.615Z,15.70
2017-09-06T21:27:14.163Z,15.70
2017-09-06T21:29:41.621Z,15.70
2017-09-06T21:32:09.180Z,15.60
2017-09-06T21:34:36.830Z,15.60
2017-09-06T21:37:04.298Z,15.50
2017-09-06T21:39:31.771Z,15.50
2017-09-06T21:41:59.302Z,15.50
2017-09-06T21:44:26.859Z,15.50
2017-09-06T21:46:54.385Z,15.50
2017-09-06T21:49:21.882Z,15.50
2017-09-06T21:51:49.473Z,15.40
2017-09-06T21:54:17.103Z,15.40
2017-09-06T21:56:44.704Z,15.50
2017-09-06T21:59:12.222Z,15.30
2017-09-06T22:01:40.451Z,15.30
2017-09-06T22:04:07.928Z,15.20
2017-09-06T22:06:35.510Z,15.20
2017-09-06T22:09:02.983Z,15.20
2017-09-06T22:11:30.518Z,15.10
2017-09-06T22:13:58.002Z,15.10
2017-09-06T22:16:25.458Z,15.00
2017-09-06T22:18:52.989Z,15.00
2017-09-06T22:21:20.543Z,15.00
2017-09-06T22:23:48.018Z,15.00
2017-09-06T22:26:15.503Z,15.00
2017-09-06T22:28:43.020Z,15.00
2017-09-06T22:31:10.591Z,15.00
2017-09-06T22:33:38.058Z,15.00
2017-09-06T22:36:05.527Z,15.00
2017-09-06T22:38:32.988Z,15.00
2017-09-06T22:41:00.467Z,15.00
2017-09-06T22:43:27.964Z,15.00
2017-09-06T22:45:55.425Z,15.00
2017-09-06T22:48:22.982Z,15.00
2017-09-06T22:50:50.442Z,15.00
2017-09-06T22:53:18.007Z,15.00
2017-09-06T22:55:45.482Z,14.90
2017-09-06T22:58:12.937Z,14.90
2017-09-06T23:00:40.423Z,14.90
2017-09-06T23:03:07.896Z,14.90
2017-09-06T23:05:35.352Z,14.90
2017-09-06T23:08:02.835Z,14.90
2017-09-06T23:10:30.407Z,14.90
2017-09-06T23:12:57.866Z,14.90
2017-09-06T23:15:25.334Z,14.80
2017-09-06T23:17:52.875Z,14.80
2017-09-06T23:20:20.338Z,14.80
2017-09-06T23:22:47.826Z,14.80
2017-09-06T23:25:15.328Z,14.70
2017-09-06T23:27:42.887Z,14.70
2017-09-06T23:30:10.454Z,14.60
2017-09-06T23:32:37.930Z,14.50
2017-09-06T23:35:05.416Z,14.50
2017-09-06T23:37:32.881Z,14.50
2017-09-06T23:40:00.345Z,14.50
2017-09-06T23:42:27.813Z,14.50
2017-09-06T23:44:55.294Z,14.50
2017-09-06T23:47:22.779Z,14.60
2017-09-06T23:49:50.303Z,14.50
2017-09-06T23:52:17.866Z,14.50
2017-09-06T23:54:45.390Z,14.40
2017-09-06T23:57:12.875Z,14.40
2017-09-06T23:59:40.351Z,14.30
